createdAt,value
2019-02-22T00:00:18.407Z,1026.56
2019-02-22T00:01:18.417Z,1026.55
2019-02-22T00:02:18.389Z,1026.56
2019-02-22T00:03:18.433Z,1026.53
2019-02-22T00:04:18.359Z,1026.55
2019-02-22T00:05:18.350Z,1026.55
2019-02-22T00:06:18.358Z,1026.49
2019-02-22T00:07:18.333Z,1026.54
2019-02-22T00:08:18.314Z,1026.52
2019-02-22T00:09:18.306Z,1026.44
2019-02-22T00:10:18.296Z,1026.44
2019-02-22T00:11:19.812Z,1026.43
2019-02-22T00:12:18.269Z,1026.46
2019-02-22T00:13:18.258Z,1026.44
2019-02-22T00:14:18.246Z,1026.41
2019-02-22T00:15:18.237Z,1026.38
2019-02-22T00:16:18.246Z,1026.48
2019-02-22T00:17:18.213Z,1026.53
2019-02-22T00:18:18.202Z,1026.52
2019-02-22T00:19:18.198Z,1026.55
2019-02-22T00:20:18.182Z,1026.54
2019-02-22T00:21:18.192Z,1026.51
2019-02-22T00:22:18.163Z,1026.56
2019-02-22T00:23:18.151Z,1026.56
2019-02-22T00:24:18.138Z,1026.57
2019-02-22T00:25:18.124Z,1026.60
2019-02-22T00:26:18.137Z,1026.61
2019-02-22T00:27:18.105Z,1026.61
2019-02-22T00:28:18.090Z,1026.56
2019-02-22T00:29:18.084Z,1026.62
2019-02-22T00:30:18.069Z,1026.64
2019-02-22T00:31:18.083Z,1026.70
2019-02-22T00:32:18.046Z,1026.62
2019-02-22T00:33:18.036Z,1026.65
2019-02-22T00:34:18.060Z,1026.66
2019-02-22T00:35:18.114Z,1026.68
2019-02-22T00:36:18.082Z,1026.63
2019-02-22T00:37:18.059Z,1026.68
2019-02-22T00:38:17.978Z,1026.71
2019-02-22T00:39:17.970Z,1026.63
2019-02-22T00:40:17.957Z,1026.66
2019-02-22T00:41:17.949Z,1026.68
2019-02-22T00:42:17.955Z,1026.66
2019-02-22T00:43:17.923Z,1026.75
2019-02-22T00:44:17.911Z,1026.70
2019-02-22T00:45:17.902Z,1026.75
2019-02-22T00:46:17.889Z,1026.76
2019-02-22T00:47:17.898Z,1026.81
2019-02-22T00:48:17.870Z,1026.84
2019-02-22T00:49:17.860Z,1026.86
2019-02-22T00:50:17.847Z,1026.75
2019-02-22T00:51:17.835Z,1026.84
2019-02-22T00:52:18.318Z,1026.89
2019-02-22T00:53:17.818Z,1026.90
2019-02-22T00:54:17.800Z,1026.94
2019-02-22T00:55:17.790Z,1026.94
2019-02-22T00:56:17.780Z,1026.90
2019-02-22T00:57:17.810Z,1026.91
2019-02-22T00:58:17.767Z,1026.95
2019-02-22T00:59:17.746Z,1026.96
2019-02-22T01:00:17.733Z,1026.93
2019-02-22T01:01:17.766Z,1027.04
2019-02-22T01:02:17.710Z,1027.02
2019-02-22T01:03:18.323Z,1027.01
2019-02-22T01:04:17.689Z,1027.00
2019-02-22T01:05:17.678Z,1027.04
2019-02-22T01:06:17.674Z,1027.08
2019-02-22T01:07:17.655Z,1027.07
2019-02-22T01:08:17.666Z,1027.08
2019-02-22T01:09:17.632Z,1027.10
2019-02-22T01:10:17.627Z,1027.06
2019-02-22T01:11:17.613Z,1027.09
2019-02-22T01:12:17.620Z,1027.06
2019-02-22T01:13:17.614Z,1027.16
2019-02-22T01:14:17.583Z,1027.05
2019-02-22T01:15:17.576Z,1027.11
2019-02-22T01:16:17.563Z,1027.08
2019-02-22T01:17:17.551Z,1027.13
2019-02-22T01:18:17.565Z,1027.08
2019-02-22T01:19:17.526Z,1027.13
2019-02-22T01:20:17.524Z,1027.11
2019-02-22T01:21:17.510Z,1027.07
2019-02-22T01:22:17.499Z,1027.03
2019-02-22T01:23:17.523Z,1027.13
2019-02-22T01:24:17.475Z,1027.12
2019-02-22T01:25:17.459Z,1027.10
2019-02-22T01:26:17.456Z,1027.05
2019-02-22T01:27:17.442Z,1027.02
2019-02-22T01:28:17.433Z,1027.04
2019-02-22T01:29:17.445Z,1027.09
2019-02-22T01:30:17.408Z,1027.11
2019-02-22T01:31:17.398Z,1027.12
2019-02-22T01:32:17.389Z,1027.08
2019-02-22T01:33:17.426Z,1027.09
2019-02-22T01:34:17.386Z,1027.10
2019-02-22T01:35:17.356Z,1027.11
2019-02-22T01:36:17.349Z,1027.12
2019-02-22T01:37:17.339Z,1027.10
2019-02-22T01:38:17.331Z,1027.14
2019-02-22T01:39:17.364Z,1027.18
2019-02-22T01:40:17.296Z,1027.18
2019-02-22T01:41:17.285Z,1027.17
2019-02-22T01:42:17.270Z,1027.14
2019-02-22T01:43:17.258Z,1027.12
2019-02-22T01:44:17.276Z,1027.14
2019-02-22T01:45:17.238Z,1027.16
2019-02-22T01:46:17.231Z,1027.21
2019-02-22T01:47:17.240Z,1027.22
2019-02-22T01:48:17.212Z,1027.19
2019-02-22T01:49:17.196Z,1027.14
2019-02-22T01:50:17.206Z,1027.10
2019-02-22T01:51:17.172Z,1027.11
2019-02-22T01:52:17.159Z,1027.18
2019-02-22T01:53:17.150Z,1027.11
2019-02-22T01:54:17.139Z,1027.09
2019-02-22T01:55:17.145Z,1027.11
2019-02-22T01:56:17.116Z,1027.12
2019-02-22T01:57:17.110Z,1027.17
2019-02-22T01:58:17.095Z,1027.15
2019-02-22T01:59:17.085Z,1027.15
2019-02-22T02:00:17.096Z,1027.20
2019-02-22T02:01:17.072Z,1027.20
2019-02-22T02:02:17.083Z,1027.19
2019-02-22T02:03:17.037Z,1027.23
2019-02-22T02:04:17.033Z,1027.13
2019-02-22T02:05:17.066Z,1027.14
2019-02-22T02:06:17.005Z,1027.12
2019-02-22T02:07:16.997Z,1027.13
2019-02-22T02:08:16.981Z,1027.10
2019-02-22T02:09:16.976Z,1027.19
2019-02-22T02:10:16.995Z,1027.10
2019-02-22T02:11:16.962Z,1027.06
2019-02-22T02:12:16.946Z,1027.09
2019-02-22T02:13:16.939Z,1027.08
2019-02-22T02:14:16.918Z,1027.07
2019-02-22T02:15:16.928Z,1027.12
2019-02-22T02:16:16.891Z,1027.13
2019-02-22T02:17:17.786Z,1027.10
2019-02-22T02:18:16.878Z,1027.18
2019-02-22T02:19:16.860Z,1027.14
2019-02-22T02:20:16.870Z,1027.16
2019-02-22T02:21:17.354Z,1027.11
2019-02-22T02:22:16.822Z,1027.14
2019-02-22T02:23:16.818Z,1027.24
2019-02-22T02:24:16.805Z,1027.25
2019-02-22T02:25:16.803Z,1027.26
2019-02-22T02:26:16.805Z,1027.26
2019-02-22T02:27:16.769Z,1027.24
2019-02-22T02:28:16.755Z,1027.28
2019-02-22T02:29:16.755Z,1027.30
2019-02-22T02:30:16.745Z,1027.30
2019-02-22T02:31:16.752Z,1027.35
2019-02-22T02:32:16.714Z,1027.27
2019-02-22T02:33:16.813Z,1027.30
2019-02-22T02:34:16.694Z,1027.29
2019-02-22T02:35:16.681Z,1027.35
2019-02-22T02:36:16.698Z,1027.25
2019-02-22T02:37:16.664Z,1027.26
2019-02-22T02:38:16.650Z,1027.29
2019-02-22T02:39:16.642Z,1027.29
2019-02-22T02:40:16.631Z,1027.27
2019-02-22T02:41:16.667Z,1027.33
2019-02-22T02:42:16.609Z,1027.26
2019-02-22T02:43:16.593Z,1027.31
2019-02-22T02:44:16.587Z,1027.28
2019-02-22T02:45:16.583Z,1027.29
2019-02-22T02:46:16.591Z,1027.26
2019-02-22T02:47:16.580Z,1027.31
2019-02-22T02:48:16.540Z,1027.28
2019-02-22T02:49:16.532Z,1027.37
2019-02-22T02:50:16.516Z,1027.32
2019-02-22T02:51:16.514Z,1027.38
2019-02-22T02:52:16.539Z,1027.34
2019-02-22T02:53:16.490Z,1027.40
2019-02-22T02:54:16.478Z,1027.32
2019-02-22T02:55:16.507Z,1027.37
2019-02-22T02:56:16.458Z,1027.32
2019-02-22T02:57:16.479Z,1027.36
2019-02-22T02:58:16.434Z,1027.38
2019-02-22T02:59:16.414Z,1027.40
2019-02-22T03:00:16.424Z,1027.42
2019-02-22T03:01:16.399Z,1027.38
2019-02-22T03:02:16.409Z,1027.51
2019-02-22T03:03:16.371Z,1027.39
2019-02-22T03:04:16.367Z,1027.38
2019-02-22T03:05:16.392Z,1027.40
2019-02-22T03:06:16.336Z,1027.42
2019-02-22T03:07:16.362Z,1027.44
2019-02-22T03:08:16.339Z,1027.52
2019-02-22T03:09:16.309Z,1027.39
2019-02-22T03:10:16.323Z,1027.55
2019-02-22T03:11:20.839Z,1027.45
2019-02-22T03:12:17.266Z,1027.45
2019-02-22T03:13:17.895Z,1027.44
2019-02-22T03:14:16.251Z,1027.45
2019-02-22T03:15:16.235Z,1027.43
2019-02-22T03:16:16.225Z,1027.46
2019-02-22T03:17:16.207Z,1027.40
2019-02-22T03:18:16.230Z,1027.49
2019-02-22T03:19:16.187Z,1027.44
2019-02-22T03:20:16.179Z,1027.44
2019-02-22T03:21:16.172Z,1027.45
2019-02-22T03:22:16.191Z,1027.53
2019-02-22T03:23:16.217Z,1027.56
2019-02-22T03:24:16.165Z,1027.58
2019-02-22T03:25:16.152Z,1027.57
2019-02-22T03:26:16.161Z,1027.58
2019-02-22T03:27:16.114Z,1027.58
2019-02-22T03:28:16.129Z,1027.59
2019-02-22T03:29:16.097Z,1027.60
2019-02-22T03:30:16.106Z,1027.68
2019-02-22T03:31:16.060Z,1027.66
2019-02-22T03:32:16.102Z,1027.68
2019-02-22T03:33:16.069Z,1027.67
2019-02-22T03:34:16.026Z,1027.61
2019-02-22T03:35:16.028Z,1027.69
2019-02-22T03:36:16.011Z,1027.70
2019-02-22T03:37:16.002Z,1027.67
2019-02-22T03:38:16.036Z,1027.71
2019-02-22T03:39:15.972Z,1027.67
2019-02-22T03:40:15.963Z,1027.63
2019-02-22T03:41:15.944Z,1027.64
2019-02-22T03:50:36.418Z,1027.80
2019-02-22T03:51:09.400Z,1027.77
2019-02-22T03:52:09.374Z,1027.73
2019-02-22T03:53:09.360Z,1027.74
2019-02-22T03:54:10.023Z,1027.78
2019-02-22T03:55:09.347Z,1027.79
2019-02-22T03:56:09.329Z,1027.79
2019-02-22T03:57:09.316Z,1027.81
2019-02-22T03:58:09.307Z,1027.88
2019-02-22T03:59:09.326Z,1027.92
2019-02-22T04:00:09.296Z,1027.89
2019-02-22T04:01:09.274Z,1027.89
2019-02-22T04:02:09.266Z,1027.93
2019-02-22T04:03:09.256Z,1027.95
2019-02-22T04:04:09.282Z,1027.92
2019-02-22T04:05:09.236Z,1027.94
2019-02-22T04:06:09.236Z,1027.94
2019-02-22T04:07:09.370Z,1027.88
2019-02-22T04:08:09.207Z,1027.93
2019-02-22T04:09:09.211Z,1027.94
2019-02-22T04:10:09.181Z,1027.93
2019-02-22T04:11:09.175Z,1027.95
2019-02-22T04:12:09.156Z,1027.92
2019-02-22T04:13:09.145Z,1027.94
2019-02-22T04:14:09.163Z,1027.97
2019-02-22T04:15:09.126Z,1028.06
2019-02-22T04:16:09.115Z,1027.96
2019-02-22T04:17:11.395Z,1027.94
2019-02-22T04:18:09.093Z,1027.97
2019-02-22T04:23:22.413Z,1027.84
2019-02-22T04:24:22.389Z,1027.88
2019-02-22T04:25:22.360Z,1027.92
2019-02-22T04:26:22.349Z,1027.93
2019-02-22T04:27:22.348Z,1027.90
2019-02-22T04:28:22.324Z,1027.94
2019-02-22T04:29:22.332Z,1027.93
2019-02-22T04:30:22.306Z,1027.92
2019-02-22T04:31:22.296Z,1027.96
2019-02-22T04:32:22.282Z,1027.95
2019-02-22T04:33:22.288Z,1028.00
2019-02-22T04:34:22.288Z,1027.96
2019-02-22T04:35:22.256Z,1027.94
2019-02-22T04:36:22.236Z,1028.04
2019-02-22T04:37:22.223Z,1027.99
2019-02-22T04:38:22.214Z,1028.01
2019-02-22T04:39:22.207Z,1028.06
2019-02-22T04:40:22.217Z,1028.04
2019-02-22T04:41:22.185Z,1028.05
2019-02-22T04:42:22.171Z,1028.03
2019-02-22T04:43:22.158Z,1028.17
2019-02-22T04:44:22.147Z,1028.16
2019-02-22T04:45:22.156Z,1028.14
2019-02-22T04:46:22.131Z,1028.12
2019-02-22T04:47:22.117Z,1028.19
2019-02-22T04:48:22.102Z,1028.18
2019-02-22T04:49:22.091Z,1028.19
2019-02-22T04:50:22.100Z,1028.18
2019-02-22T04:51:22.072Z,1028.23
2019-02-22T04:52:22.060Z,1028.21
2019-02-22T04:53:22.050Z,1028.24
2019-02-22T04:54:22.036Z,1028.26
2019-02-22T04:55:22.074Z,1028.26
2019-02-22T04:56:22.011Z,1028.26
2019-02-22T04:57:22.007Z,1028.26
2019-02-22T04:58:22.002Z,1028.30
2019-02-22T04:59:21.981Z,1028.25
2019-02-22T05:00:21.968Z,1028.30
2019-02-22T05:01:21.978Z,1028.21
2019-02-22T05:02:21.945Z,1028.19
2019-02-22T05:03:21.937Z,1028.21
2019-02-22T05:04:21.924Z,1028.21
2019-02-22T05:05:21.915Z,1028.26
2019-02-22T05:06:21.926Z,1028.23
2019-02-22T05:07:22.053Z,1028.23
2019-02-22T05:08:21.881Z,1028.31
2019-02-22T05:09:21.868Z,1028.25
2019-02-22T05:10:21.858Z,1028.26
2019-02-22T05:11:21.874Z,1028.32
2019-02-22T05:12:21.856Z,1028.37
2019-02-22T05:13:21.821Z,1028.40
2019-02-22T05:14:21.817Z,1028.41
2019-02-22T05:15:21.804Z,1028.46
2019-02-22T05:16:21.842Z,1028.54
2019-02-22T05:17:21.778Z,1028.46
2019-02-22T05:18:21.770Z,1028.55
2019-02-22T05:19:21.761Z,1028.57
2019-02-22T05:20:21.749Z,1028.45
2019-02-22T05:21:21.780Z,1028.60
2019-02-22T05:22:21.724Z,1028.52
2019-02-22T05:23:21.713Z,1028.48
2019-02-22T05:24:21.703Z,1028.56
2019-02-22T05:25:21.690Z,1028.55
2019-02-22T05:26:21.686Z,1028.54
2019-02-22T05:27:21.691Z,1028.58
2019-02-22T05:28:21.655Z,1028.51
2019-02-22T05:29:21.740Z,1028.56
2019-02-22T05:30:21.632Z,1028.59
2019-02-22T05:31:21.621Z,1028.52
2019-02-22T05:32:21.636Z,1028.55
2019-02-22T05:33:21.602Z,1028.58
2019-02-22T05:34:21.593Z,1028.53
2019-02-22T05:35:21.578Z,1028.51
2019-02-22T05:36:21.570Z,1028.57
2019-02-22T05:37:21.574Z,1028.55
2019-02-22T05:38:21.543Z,1028.51
2019-02-22T05:39:21.536Z,1028.55
2019-02-22T05:40:21.534Z,1028.57
2019-02-22T05:41:21.512Z,1028.53
2019-02-22T05:42:23.222Z,1028.52
2019-02-22T05:43:21.489Z,1028.56
2019-02-22T05:44:21.477Z,1028.49
2019-02-22T05:45:21.478Z,1028.49
2019-02-22T05:46:21.453Z,1028.56
2019-02-22T05:47:21.466Z,1028.58
2019-02-22T05:48:21.434Z,1028.64
2019-02-22T05:49:22.434Z,1028.54
2019-02-22T05:50:21.411Z,1028.54
2019-02-22T05:51:21.398Z,1028.62
2019-02-22T05:52:21.409Z,1028.64
2019-02-22T05:53:21.376Z,1028.61
2019-02-22T05:54:21.370Z,1028.63
2019-02-22T05:55:21.361Z,1028.66
2019-02-22T05:56:21.352Z,1028.72
2019-02-22T05:57:21.352Z,1028.69
2019-02-22T05:58:21.319Z,1028.71
2019-02-22T05:59:21.313Z,1028.72
2019-02-22T06:00:21.314Z,1028.70
2019-02-22T06:01:21.291Z,1028.73
2019-02-22T06:02:21.299Z,1028.74
2019-02-22T06:03:21.266Z,1028.75
2019-02-22T06:04:21.256Z,1028.78
2019-02-22T06:05:21.249Z,1028.78
2019-02-22T06:06:21.232Z,1028.78
2019-02-22T06:07:21.244Z,1028.84
2019-02-22T06:08:21.208Z,1028.85
2019-02-22T06:09:21.202Z,1028.87
2019-02-22T06:10:21.187Z,1028.81
2019-02-22T06:11:21.186Z,1028.90
2019-02-22T06:12:21.199Z,1028.97
2019-02-22T06:13:21.175Z,1028.91
2019-02-22T06:14:21.141Z,1028.96
2019-02-22T06:15:21.130Z,1028.99
2019-02-22T06:16:21.120Z,1029.01
2019-02-22T06:17:21.110Z,1029.03
2019-02-22T06:18:23.004Z,1029.01
2019-02-22T06:19:21.090Z,1029.03
2019-02-22T06:20:21.075Z,1029.07
2019-02-22T06:21:21.065Z,1029.03
2019-02-22T06:22:29.002Z,1029.09
2019-02-22T06:23:23.839Z,1029.13
2019-02-22T06:24:21.063Z,1029.09
2019-02-22T06:25:21.021Z,1029.14
2019-02-22T06:26:21.008Z,1029.09
2019-02-22T06:27:21.004Z,1029.10
2019-02-22T06:28:20.985Z,1029.18
2019-02-22T06:29:20.997Z,1029.17
2019-02-22T06:30:21.035Z,1029.21
2019-02-22T06:31:20.955Z,1029.22
2019-02-22T06:32:20.940Z,1029.18
2019-02-22T06:33:20.934Z,1029.24
2019-02-22T06:34:20.944Z,1029.23
2019-02-22T06:35:20.912Z,1029.26
2019-02-22T06:36:21.001Z,1029.22
2019-02-22T06:37:20.889Z,1029.32
2019-02-22T06:38:20.874Z,1029.24
2019-02-22T06:39:20.887Z,1029.31
2019-02-22T06:40:20.857Z,1029.33
2019-02-22T06:41:20.845Z,1029.31
2019-02-22T06:42:20.833Z,1029.39
2019-02-22T06:43:20.822Z,1029.37
2019-02-22T06:44:20.835Z,1029.35
2019-02-22T06:45:20.796Z,1029.42
2019-02-22T06:46:20.787Z,1029.38
2019-02-22T06:47:22.756Z,1029.42
2019-02-22T06:48:20.767Z,1029.39
2019-02-22T06:49:20.770Z,1029.42
2019-02-22T06:50:20.743Z,1029.43
2019-02-22T06:51:20.729Z,1029.38
2019-02-22T06:52:20.718Z,1029.37
2019-02-22T06:53:20.709Z,1029.32
2019-02-22T06:54:20.695Z,1029.34
2019-02-22T06:55:20.705Z,1029.35
2019-02-22T06:56:20.679Z,1029.39
2019-02-22T06:57:20.669Z,1029.35
2019-02-22T06:58:20.650Z,1029.39
2019-02-22T06:59:20.643Z,1029.44
2019-02-22T07:00:20.654Z,1029.34
2019-02-22T07:01:20.617Z,1029.44
2019-02-22T07:02:20.607Z,1029.42
2019-02-22T07:03:20.600Z,1029.43
2019-02-22T07:04:20.583Z,1029.46
2019-02-22T07:05:20.592Z,1029.49
2019-02-22T08:04:38.335Z,1030.19
2019-02-22T08:05:38.278Z,1030.20
2019-02-22T08:06:38.266Z,1030.19
2019-02-22T08:07:38.255Z,1030.14
2019-02-22T08:08:38.245Z,1030.21
2019-02-22T08:09:38.247Z,1030.15
2019-02-22T08:10:38.217Z,1030.21
2019-02-22T08:11:38.207Z,1030.24
2019-02-22T08:12:38.193Z,1030.32
2019-02-22T08:13:38.184Z,1030.27
2019-02-22T08:14:39.156Z,1030.31
2019-02-22T08:15:38.161Z,1030.33
2019-02-22T08:16:38.153Z,1030.32
2019-02-22T08:17:38.140Z,1030.35
2019-02-22T08:18:38.127Z,1030.36
2019-02-22T08:19:38.138Z,1030.43
2019-02-22T08:20:38.107Z,1030.40
2019-02-22T08:21:38.095Z,1030.42
2019-02-22T08:22:38.082Z,1030.43
2019-02-22T08:23:38.071Z,1030.48
2019-02-22T08:24:38.084Z,1030.43
2019-02-22T08:25:38.048Z,1030.48
2019-02-22T08:26:38.038Z,1030.47
2019-02-22T08:27:40.129Z,1030.48
2019-02-22T08:28:38.073Z,1030.49
2019-02-22T08:29:38.406Z,1030.50
2019-02-22T08:30:38.016Z,1030.55
2019-02-22T08:31:37.987Z,1030.55
2019-02-22T08:32:37.978Z,1030.61
2019-02-22T08:33:37.967Z,1030.59
2019-02-22T08:34:37.958Z,1030.62
2019-02-22T08:35:37.969Z,1030.62
2019-02-22T08:36:37.931Z,1030.56
2019-02-22T08:37:37.937Z,1030.59
2019-02-22T08:38:37.907Z,1030.71
2019-02-22T08:39:37.904Z,1030.64
2019-02-22T08:40:37.911Z,1030.65
2019-02-22T08:41:37.876Z,1030.71
2019-02-22T08:42:37.968Z,1030.67
2019-02-22T08:43:37.856Z,1030.70
2019-02-22T08:44:37.843Z,1030.65
2019-02-22T08:45:37.853Z,1030.65
2019-02-22T08:46:37.822Z,1030.66
2019-02-22T08:47:37.811Z,1030.70
2019-02-22T08:48:37.794Z,1030.69
2019-02-22T08:49:37.784Z,1030.80
2019-02-22T08:50:37.791Z,1030.80
2019-02-22T08:51:37.761Z,1030.87
2019-02-22T08:52:37.750Z,1030.89
2019-02-22T08:53:37.746Z,1030.87
2019-02-22T08:54:46.706Z,1030.91
2019-02-22T08:55:38.741Z,1030.92
2019-02-22T08:56:37.710Z,1030.93
2019-02-22T08:57:37.696Z,1030.93
2019-02-22T08:58:37.688Z,1030.93
2019-02-22T08:59:37.674Z,1030.91
2019-02-22T09:00:37.695Z,1030.94
2019-02-22T09:01:37.697Z,1030.98
2019-02-22T09:02:37.644Z,1030.95
2019-02-22T09:03:49.470Z,1030.93
2019-02-22T09:04:38.618Z,1030.90
2019-02-22T09:05:37.704Z,1031.00
2019-02-22T09:06:37.601Z,1031.00
2019-02-22T09:07:37.586Z,1031.08
2019-02-22T09:08:37.571Z,1031.07
2019-02-22T09:09:37.564Z,1031.07
2019-02-22T09:10:37.601Z,1031.11
2019-02-22T09:11:37.540Z,1031.09
2019-02-22T09:12:37.533Z,1031.17
2019-02-22T09:13:43.449Z,1031.17
2019-02-22T09:14:38.509Z,1031.17
2019-02-22T09:15:37.497Z,1031.11
2019-02-22T09:16:37.509Z,1031.17
2019-02-22T09:17:37.473Z,1031.11
2019-02-22T09:18:37.464Z,1031.18
2019-02-22T09:34:05.404Z,1031.36
2019-02-22T09:34:31.153Z,1031.39
2019-02-22T09:35:31.139Z,1031.36
2019-02-22T09:36:31.125Z,1031.31
2019-02-22T09:37:31.120Z,1031.33
2019-02-22T09:38:31.103Z,1031.34
2019-02-22T09:39:31.132Z,1031.32
2019-02-22T09:40:31.085Z,1031.39
2019-02-22T09:41:31.071Z,1031.48
2019-02-22T09:42:31.065Z,1031.50
2019-02-22T09:43:31.053Z,1031.47
2019-02-22T09:44:31.039Z,1031.49
2019-02-22T09:45:31.903Z,1031.46
2019-02-22T09:46:31.016Z,1031.45
2019-02-22T09:47:31.035Z,1031.44
2019-02-22T09:48:30.997Z,1031.45
2019-02-22T09:49:30.983Z,1031.47
2019-02-22T09:50:30.973Z,1031.39
2019-02-22T09:51:30.961Z,1031.38
2019-02-22T09:52:30.980Z,1031.33
2019-02-22T09:53:30.944Z,1031.22
2019-02-22T09:54:30.929Z,1031.32
2019-02-22T09:55:30.916Z,1031.30
2019-02-22T10:02:51.330Z,1031.41
2019-02-22T10:03:24.275Z,1031.38
2019-02-22T11:12:17.405Z,1031.64
2019-02-22T11:12:50.346Z,1031.62
2019-02-22T11:13:50.340Z,1031.56
2019-02-22T11:14:50.330Z,1031.57
2019-02-22T11:15:50.335Z,1031.61
2019-02-22T11:16:50.304Z,1031.54
2019-02-22T11:17:50.292Z,1031.55
2019-02-22T11:18:50.282Z,1031.55
2019-02-22T11:19:50.273Z,1031.54
2019-02-22T11:20:50.282Z,1031.63
2019-02-22T11:21:50.249Z,1031.51
2019-02-22T11:22:50.249Z,1031.54
2019-02-22T11:23:50.227Z,1031.58
2019-02-22T12:15:52.813Z,1031.37
2019-02-22T12:16:50.235Z,1031.43
2019-02-22T12:17:50.219Z,1031.40
2019-02-22T12:18:50.200Z,1031.42
2019-02-22T12:19:50.209Z,1031.42
2019-02-22T12:20:50.180Z,1031.44
2019-02-22T12:21:50.165Z,1031.44
2019-02-22T12:22:50.152Z,1031.39
2019-02-22T12:23:52.802Z,1031.51
2019-02-22T12:24:50.158Z,1031.36
2019-02-22T12:25:50.126Z,1031.44
2019-02-22T12:26:50.111Z,1031.39
2019-02-22T12:27:50.100Z,1031.52
2019-02-22T12:28:50.089Z,1031.46
2019-02-22T12:29:50.878Z,1031.46
2019-02-22T12:30:50.118Z,1031.47
2019-02-22T12:31:50.060Z,1031.55
2019-02-22T12:32:50.050Z,1031.48
2019-02-22T12:33:50.038Z,1031.54
2019-02-22T12:34:50.051Z,1031.53
2019-02-22T12:35:50.013Z,1031.40
2019-02-22T12:36:50.020Z,1031.54
2019-02-22T12:37:49.989Z,1031.55
2019-02-22T12:38:49.986Z,1031.50
2019-02-22T12:39:49.994Z,1031.47
2019-02-22T12:40:49.963Z,1031.51
2019-02-22T12:41:49.948Z,1031.52
2019-02-22T12:42:49.978Z,1031.52
2019-02-22T12:43:49.928Z,1031.46
2019-02-22T12:44:49.941Z,1031.49
2019-02-22T12:45:49.905Z,1031.52
2019-02-22T12:46:49.897Z,1031.49
2019-02-22T12:47:49.895Z,1031.51
2019-02-22T12:48:49.883Z,1031.56
2019-02-22T13:09:40.863Z,1031.80
2019-02-22T13:26:55.311Z,1031.63
2019-02-22T13:27:27.651Z,1031.68
2019-02-22T13:28:27.652Z,1031.63
2019-02-22T13:29:27.673Z,1031.69
2019-02-22T13:30:27.625Z,1031.69
2019-02-22T13:31:30.291Z,1031.69
2019-02-22T13:32:27.610Z,1031.68
2019-02-22T13:33:27.574Z,1031.68
2019-02-22T13:34:27.606Z,1031.71
2019-02-22T13:35:27.568Z,1031.68
2019-02-22T13:36:27.546Z,1031.66
2019-02-22T13:37:27.532Z,1031.63
2019-02-22T13:38:27.523Z,1031.68
2019-02-22T13:39:27.518Z,1031.66
2019-02-22T13:40:27.524Z,1031.66
2019-02-22T13:41:27.489Z,1031.67
2019-02-22T13:42:27.479Z,1031.64
2019-02-22T13:43:27.476Z,1031.63
2019-02-22T13:44:27.457Z,1031.65
2019-02-22T13:45:27.499Z,1031.65
2019-02-22T13:46:27.433Z,1031.59
2019-02-22T13:47:27.421Z,1031.63
2019-02-22T13:48:27.415Z,1031.67
2019-02-22T13:49:27.440Z,1031.59
2019-02-22T13:50:27.401Z,1031.63
2019-02-22T13:51:27.410Z,1031.63
2019-02-22T13:52:27.371Z,1031.58
2019-02-22T13:53:27.352Z,1031.62
2019-02-22T14:11:58.246Z,1031.63
2019-02-22T14:12:31.223Z,1031.64
2019-02-22T14:13:31.213Z,1031.63
2019-02-22T14:14:31.198Z,1031.63
2019-02-22T14:15:38.000Z,1031.63
2019-02-22T14:16:32.180Z,1031.57
2019-02-22T14:17:31.184Z,1031.60
2019-02-22T14:18:31.155Z,1031.61
2019-02-22T14:19:31.148Z,1031.54
2019-02-22T14:20:31.130Z,1031.57
2019-02-22T14:21:31.120Z,1031.55
2019-02-22T14:22:31.133Z,1031.56
2019-02-22T14:23:31.102Z,1031.51
2019-02-22T14:24:31.089Z,1031.62
2019-02-22T14:25:31.076Z,1031.58
2019-02-22T14:26:31.069Z,1031.54
2019-02-22T14:27:31.075Z,1031.54
2019-02-22T14:28:31.047Z,1031.60
2019-02-22T14:29:31.034Z,1031.62
2019-02-22T14:30:31.077Z,1031.62
2019-02-22T14:31:31.034Z,1031.52
2019-02-22T14:32:31.045Z,1031.51
2019-02-22T14:33:30.990Z,1031.57
2019-02-22T14:34:30.979Z,1031.53
2019-02-22T14:35:30.966Z,1031.49
2019-02-22T14:36:31.086Z,1031.48
2019-02-22T14:37:31.025Z,1031.50
2019-02-22T14:38:30.978Z,1031.51
2019-02-22T14:40:58.658Z,1031.50
2019-02-22T14:41:32.635Z,1031.50
2019-02-22T14:41:58.998Z,1031.58
2019-02-22T14:42:59.107Z,1031.49
2019-02-22T14:43:58.971Z,1031.55
2019-02-22T14:45:01.301Z,1031.45
2019-02-22T14:45:58.939Z,1031.46
2019-02-22T14:46:58.926Z,1031.45
2019-02-22T14:47:58.938Z,1031.56
2019-02-22T14:49:29.107Z,1031.51
2019-02-22T14:49:58.898Z,1031.50
2019-02-22T14:50:58.881Z,1031.49
2019-02-22T14:51:58.888Z,1031.53
2019-02-22T14:52:58.910Z,1031.56
2019-02-22T14:53:58.854Z,1031.58
2019-02-22T14:54:58.839Z,1031.53
2019-02-22T14:55:59.841Z,1031.58
2019-02-22T14:56:58.817Z,1031.60
2019-02-22T14:57:58.831Z,1031.59
2019-02-22T14:58:58.799Z,1031.56
2019-02-22T14:59:58.793Z,1031.62
2019-02-22T15:00:58.771Z,1031.55
2019-02-22T15:01:58.763Z,1031.55
2019-02-22T15:02:58.776Z,1031.52
2019-02-22T15:03:58.742Z,1031.59
2019-02-22T15:04:58.731Z,1031.58
2019-02-22T15:05:58.720Z,1031.57
2019-02-22T15:06:58.708Z,1031.53
2019-02-22T15:07:58.716Z,1031.59
2019-02-22T15:08:58.684Z,1031.53
2019-02-22T15:09:59.072Z,1031.58
2019-02-22T15:10:58.660Z,1031.60
2019-02-22T15:11:58.649Z,1031.59
2019-02-22T15:12:58.680Z,1031.57
2019-02-22T15:13:58.632Z,1031.53
2019-02-22T15:14:58.618Z,1031.57
2019-02-22T15:16:01.086Z,1031.58
2019-02-22T15:16:59.601Z,1031.56
2019-02-22T15:17:58.607Z,1031.57
2019-02-22T15:18:58.582Z,1031.59
2019-02-22T15:19:58.570Z,1031.54
2019-02-22T15:20:58.554Z,1031.52
2019-02-22T15:22:00.987Z,1031.54
2019-02-22T15:22:58.561Z,1031.59
2019-02-22T15:23:58.524Z,1031.56
2019-02-22T15:24:58.518Z,1031.62
2019-02-22T15:25:58.500Z,1031.65
2019-02-22T15:26:58.490Z,1031.65
2019-02-22T15:27:58.515Z,1031.61
2019-02-22T15:28:58.466Z,1031.61
2019-02-22T15:29:58.570Z,1031.64
2019-02-22T15:30:58.452Z,1031.66
2019-02-22T15:31:58.441Z,1031.60
2019-02-22T15:32:58.436Z,1031.64
2019-02-22T15:33:58.500Z,1031.62
2019-02-22T15:34:58.410Z,1031.60
2019-02-22T15:35:58.393Z,1031.58
2019-02-22T15:36:58.481Z,1031.59
2019-02-22T15:37:58.377Z,1031.58
2019-02-22T15:38:58.395Z,1031.65
2019-02-22T15:45:12.904Z,1031.57
2019-02-22T15:46:11.795Z,1031.58
2019-02-22T15:47:11.442Z,1031.64
2019-02-22T15:48:02.626Z,1031.63
2019-02-22T15:49:01.630Z,1031.65
2019-02-22T15:50:01.603Z,1031.59
2019-02-22T15:51:04.395Z,1031.59
2019-02-22T15:52:01.575Z,1031.69
2019-02-22T15:53:01.573Z,1031.62
2019-02-22T15:54:01.603Z,1031.64
2019-02-22T15:55:01.599Z,1031.66
2019-02-22T15:56:01.543Z,1031.73
2019-02-22T15:57:01.522Z,1031.65
2019-02-22T15:58:01.522Z,1031.68
2019-02-22T15:59:01.526Z,1031.68
2019-02-22T16:00:01.501Z,1031.71
2019-02-22T16:01:01.478Z,1031.68
2019-02-22T16:02:01.464Z,1031.67
2019-02-22T16:03:01.449Z,1031.70
2019-02-22T16:04:01.558Z,1031.70
2019-02-22T16:05:01.430Z,1031.76
2019-02-22T16:06:01.424Z,1031.71
2019-02-22T16:07:01.414Z,1031.76
2019-02-22T16:08:01.398Z,1031.71
2019-02-22T16:09:01.392Z,1031.62
2019-02-22T16:10:01.404Z,1031.66
2019-02-22T16:11:01.378Z,1031.66
2019-02-22T16:12:01.375Z,1031.64
2019-02-22T16:13:01.364Z,1031.64
2019-02-22T16:14:01.334Z,1031.70
2019-02-22T16:15:01.352Z,1031.71
2019-02-22T16:16:01.317Z,1031.69
2019-02-22T16:17:01.303Z,1031.68
2019-02-22T16:18:01.300Z,1031.74
2019-02-22T16:19:01.283Z,1031.70
2019-02-22T16:20:01.290Z,1031.72
2019-02-22T16:21:01.259Z,1031.71
2019-02-22T16:22:01.280Z,1031.74
2019-02-22T16:23:01.252Z,1031.67
2019-02-22T16:24:01.226Z,1031.76
2019-02-22T16:25:01.233Z,1031.75
2019-02-22T16:26:01.199Z,1031.77
2019-02-22T16:27:01.765Z,1031.77
2019-02-22T16:28:01.181Z,1031.75
2019-02-22T16:29:01.193Z,1031.68
2019-02-22T16:30:01.288Z,1031.71
2019-02-22T16:31:01.148Z,1031.71
2019-02-22T16:32:01.136Z,1031.72